createdAt,value
2022-12-18T00:00:08.615Z,-3.60
2022-12-18T00:03:10.765Z,-3.60
2022-12-18T00:06:14.618Z,-3.70
2022-12-18T00:09:17.254Z,-3.70
2022-12-18T00:15:20.765Z,-3.90
2022-12-18T00:18:22.484Z,-3.90
2022-12-18T00:21:24.247Z,-4.00
2022-12-18T00:24:26.056Z,-4.00
2022-12-18T00:27:27.665Z,-4.10
2022-12-18T00:30:29.338Z,-4.00
2022-12-18T00:33:31.706Z,-4.10
2022-12-18T00:36:36.003Z,-4.10
2022-12-18T00:39:37.665Z,-4.10
2022-12-18T00:42:57.402Z,-4.10
2022-12-18T00:45:59.106Z,-4.20
2022-12-18T00:49:00.849Z,-4.20
2022-12-18T00:52:02.503Z,-4.20
2022-12-18T00:55:06.395Z,-4.20
2022-12-18T00:58:09.619Z,-4.30
2022-12-18T01:01:11.469Z,-4.30
2022-12-18T01:04:13.258Z,-4.20
2022-12-18T01:07:14.963Z,-4.20
2022-12-18T01:10:16.700Z,-4.20
2022-12-18T01:13:18.437Z,-4.30
2022-12-18T01:16:21.089Z,-4.20
2022-12-18T01:19:24.755Z,-4.20
2022-12-18T01:22:28.961Z,-4.20
2022-12-18T01:25:30.616Z,-4.20
2022-12-18T01:28:32.309Z,-4.30
2022-12-18T01:31:35.262Z,-4.30
2022-12-18T01:34:38.253Z,-4.30
2022-12-18T01:37:40.121Z,-4.30
2022-12-18T01:40:41.780Z,-4.30
2022-12-18T01:43:55.640Z,-4.20
2022-12-18T01:46:57.339Z,-4.20
2022-12-18T01:50:01.723Z,-4.10
2022-12-18T01:53:16.457Z,-4.20
2022-12-18T01:56:20.817Z,-4.20
2022-12-18T01:59:22.984Z,-4.20
2022-12-18T02:02:24.941Z,-4.30
2022-12-18T02:05:49.176Z,-4.30
2022-12-18T02:09:13.202Z,-4.30
2022-12-18T02:12:18.978Z,-4.30
2022-12-18T02:15:25.730Z,-4.30
2022-12-18T02:18:40.010Z,-4.20
2022-12-18T02:22:12.709Z,-4.30
2022-12-18T02:25:46.800Z,-4.30
2022-12-18T02:28:52.623Z,-4.30
2022-12-18T02:31:58.037Z,-4.40
2022-12-18T02:35:01.936Z,-4.40
2022-12-18T02:38:05.557Z,-4.40
2022-12-18T02:41:08.057Z,-4.40
2022-12-18T02:44:14.294Z,-4.40
2022-12-18T02:47:19.764Z,-4.40
2022-12-18T02:50:50.696Z,-4.40
2022-12-18T02:54:07.246Z,-4.40
2022-12-18T02:57:19.536Z,-4.40
2022-12-18T03:00:40.309Z,-4.40
2022-12-18T03:03:59.208Z,-4.40
2022-12-18T03:07:06.038Z,-4.50
2022-12-18T03:10:10.927Z,-4.60
2022-12-18T03:13:29.057Z,-4.60
2022-12-18T03:16:34.997Z,-4.70
2022-12-18T03:19:36.943Z,-4.60
2022-12-18T03:22:39.981Z,-4.60
2022-12-18T03:25:45.318Z,-4.50
2022-12-18T03:28:54.490Z,-4.50
2022-12-18T03:32:03.887Z,-4.70
2022-12-18T03:35:07.554Z,-4.70
2022-12-18T03:38:10.163Z,-4.90
2022-12-18T03:41:46.003Z,-4.90
2022-12-18T03:45:22.575Z,-4.90
2022-12-18T03:48:38.681Z,-4.90
2022-12-18T03:52:15.001Z,-4.90
2022-12-18T03:55:18.238Z,-5.00
2022-12-18T03:58:24.239Z,-5.10
2022-12-18T04:01:39.492Z,-5.10
2022-12-18T04:04:43.009Z,-5.00
2022-12-18T04:07:47.723Z,-5.00
2022-12-18T04:10:49.417Z,-5.10
2022-12-18T04:13:51.164Z,-5.00
2022-12-18T04:16:52.878Z,-5.00
2022-12-18T04:19:54.511Z,-5.00
2022-12-18T04:22:56.252Z,-5.00
2022-12-18T04:25:57.885Z,-5.00
2022-12-18T04:28:59.686Z,-5.00
2022-12-18T04:32:01.515Z,-4.90
2022-12-18T04:35:05.112Z,-5.00
2022-12-18T04:38:09.225Z,-5.10
2022-12-18T04:41:10.934Z,-5.10
2022-12-18T04:44:12.640Z,-5.20
2022-12-18T04:47:14.303Z,-5.10
2022-12-18T04:50:15.994Z,-5.10
2022-12-18T04:53:17.790Z,-5.00
2022-12-18T04:56:19.458Z,-4.90
2022-12-18T04:59:21.147Z,-4.90
2022-12-18T05:02:22.923Z,-4.80
2022-12-18T05:05:24.771Z,-4.70
2022-12-18T05:08:27.079Z,-4.70
2022-12-18T05:11:28.799Z,-4.80
2022-12-18T05:14:30.595Z,-4.80
2022-12-18T05:17:32.243Z,-4.70
2022-12-18T05:20:33.921Z,-4.70
2022-12-18T05:23:36.075Z,-4.60
2022-12-18T05:26:37.938Z,-4.60
2022-12-18T05:29:39.622Z,-4.60
2022-12-18T05:32:41.351Z,-4.60
2022-12-18T05:35:44.003Z,-4.60
2022-12-18T05:38:45.688Z,-4.60
2022-12-18T05:41:47.350Z,-4.60
2022-12-18T05:44:49.095Z,-4.60
2022-12-18T05:47:50.811Z,-4.60
2022-12-18T05:50:52.600Z,-4.50
2022-12-18T05:53:54.458Z,-4.40
2022-12-18T05:56:56.257Z,-4.40
2022-12-18T05:59:57.959Z,-4.40
2022-12-18T06:03:00.221Z,-4.40
2022-12-18T06:06:02.043Z,-4.30
2022-12-18T06:09:09.080Z,-4.30
2022-12-18T06:12:11.642Z,-4.30
2022-12-18T06:15:13.332Z,-4.20
2022-12-18T06:18:15.858Z,-4.20
2022-12-18T06:21:17.574Z,-4.20
2022-12-18T06:24:19.318Z,-4.30
2022-12-18T06:27:21.401Z,-4.30
2022-12-18T06:30:23.128Z,-4.30
2022-12-18T06:33:29.148Z,-4.30
2022-12-18T06:36:30.993Z,-4.30
2022-12-18T06:39:32.856Z,-4.20
2022-12-18T06:42:34.659Z,-4.10
2022-12-18T06:45:36.410Z,-4.00
2022-12-18T06:48:38.345Z,-4.00
2022-12-18T06:51:40.309Z,-3.90
2022-12-18T06:54:42.005Z,-3.90
2022-12-18T06:57:43.758Z,-4.00
2022-12-18T07:00:45.495Z,-4.00
2022-12-18T07:03:47.984Z,-4.00
2022-12-18T07:06:49.872Z,-4.00
2022-12-18T07:09:52.262Z,-4.00
2022-12-18T07:12:53.915Z,-4.00
2022-12-18T07:15:55.782Z,-4.00
2022-12-18T07:18:57.696Z,-4.00
2022-12-18T07:21:59.395Z,-4.10
2022-12-18T07:25:01.075Z,-4.20
2022-12-18T07:28:03.679Z,-4.30
2022-12-18T07:31:10.184Z,-4.40
2022-12-18T07:34:16.892Z,-4.40
2022-12-18T07:37:18.605Z,-4.40
2022-12-18T07:40:20.346Z,-4.40
2022-12-18T07:43:24.536Z,-4.40
2022-12-18T07:46:26.319Z,-4.40
2022-12-18T07:49:28.829Z,-4.30
2022-12-18T07:52:30.518Z,-4.10
2022-12-18T07:55:59.956Z,-4.00
2022-12-18T07:58:55.180Z,-3.80
2022-12-18T08:01:57.172Z,-3.60
2022-12-18T08:04:59.450Z,-3.50
2022-12-18T08:08:01.310Z,-3.40
2022-12-18T08:11:03.146Z,-3.40
2022-12-18T08:14:04.991Z,-3.30
2022-12-18T08:17:06.794Z,-3.20
2022-12-18T08:20:09.250Z,-3.10
2022-12-18T08:23:10.984Z,-2.80
2022-12-18T08:26:13.436Z,-2.80
2022-12-18T08:29:19.969Z,-2.70
2022-12-18T08:32:26.593Z,-2.60
2022-12-18T08:35:36.359Z,-2.50
2022-12-18T08:38:39.585Z,-2.40
2022-12-18T08:41:41.318Z,-2.40
2022-12-18T08:44:43.042Z,-2.20
2022-12-18T08:48:44.453Z,-2.10
2022-12-18T08:51:46.199Z,-2.10
2022-12-18T08:54:47.979Z,-1.90
2022-12-18T08:57:52.587Z,-1.80
2022-12-18T09:00:54.336Z,-1.40
2022-12-18T09:04:05.068Z,-1.30
2022-12-18T09:07:10.060Z,-1.00
2022-12-18T09:10:14.728Z,-0.80
2022-12-18T09:13:17.915Z,-0.50
2022-12-18T09:16:20.612Z,-0.20
2022-12-18T09:19:22.463Z,0.00
2022-12-18T09:22:24.199Z,0.20
2022-12-18T09:25:25.982Z,0.20
2022-12-18T09:28:28.245Z,0.20
2022-12-18T09:31:29.946Z,0.10
2022-12-18T09:34:31.636Z,0.10
2022-12-18T09:37:35.875Z,-0.10
2022-12-18T09:40:45.546Z,0.00
2022-12-18T09:43:55.016Z,0.10
2022-12-18T09:47:10.473Z,0.30
2022-12-18T09:50:35.191Z,0.50
2022-12-18T09:53:42.233Z,0.70
2022-12-18T09:56:44.765Z,0.80
2022-12-18T09:59:59.649Z,0.90
2022-12-18T10:03:10.210Z,0.70
2022-12-18T10:06:22.666Z,0.70
2022-12-18T10:09:45.903Z,0.90
2022-12-18T10:12:50.402Z,0.90
2022-12-18T10:16:47.430Z,0.70
2022-12-18T10:20:00.510Z,0.60
2022-12-18T10:23:18.626Z,0.40
2022-12-18T10:26:20.385Z,0.30
2022-12-18T10:29:25.782Z,0.30
2022-12-18T10:32:30.004Z,0.30
2022-12-18T10:35:31.753Z,0.40
2022-12-18T10:38:33.842Z,0.40
2022-12-18T10:41:35.720Z,0.40
2022-12-18T10:44:37.427Z,0.50
2022-12-18T10:47:45.738Z,0.50
2022-12-18T10:54:17.743Z,0.60
2022-12-18T10:57:38.965Z,0.70
2022-12-18T11:00:40.645Z,0.80
2022-12-18T11:03:59.027Z,0.80
2022-12-18T11:07:06.051Z,0.80
2022-12-18T11:10:19.932Z,0.70
2022-12-18T11:13:27.355Z,0.60
2022-12-18T11:16:32.194Z,0.60
2022-12-18T11:19:40.928Z,0.50
2022-12-18T11:22:42.746Z,0.50
2022-12-18T11:25:56.902Z,0.30
2022-12-18T11:29:29.480Z,0.20
2022-12-18T11:32:36.638Z,0.10
2022-12-18T11:35:56.865Z,0.00
2022-12-18T11:39:03.289Z,0.00
2022-12-18T11:42:20.969Z,-0.10
2022-12-18T11:45:34.058Z,-0.10
2022-12-18T11:48:46.722Z,-0.10
2022-12-18T11:52:01.367Z,-0.10
2022-12-18T11:55:12.132Z,-0.20
2022-12-18T11:58:20.568Z,-0.10
2022-12-18T12:01:27.633Z,-0.10
2022-12-18T12:04:53.569Z,-0.20
2022-12-18T12:08:07.257Z,-0.20
2022-12-18T12:11:18.216Z,-0.30
2022-12-18T12:14:35.507Z,-0.30
2022-12-18T12:17:37.153Z,-0.40
2022-12-18T12:21:33.849Z,-0.50
2022-12-18T12:24:58.375Z,-0.60
2022-12-18T12:28:21.898Z,-0.60
2022-12-18T12:31:51.300Z,-0.50
2022-12-18T12:35:12.257Z,-0.50
2022-12-18T12:38:51.597Z,-0.40
2022-12-18T12:42:15.619Z,-0.40
2022-12-18T12:45:25.080Z,-0.60
2022-12-18T12:48:39.020Z,-0.80
2022-12-18T12:51:45.575Z,-0.90
2022-12-18T12:54:49.101Z,-1.10
2022-12-18T12:58:03.063Z,-1.20
2022-12-18T13:01:07.901Z,-1.20
2022-12-18T13:04:21.789Z,-1.20
2022-12-18T13:07:52.854Z,-1.20
2022-12-18T13:11:16.777Z,-1.20
2022-12-18T13:14:30.384Z,-1.30
2022-12-18T13:17:32.422Z,-1.40
2022-12-18T13:20:38.502Z,-1.50
2022-12-18T13:23:41.248Z,-1.50
2022-12-18T13:26:43.256Z,-1.50
2022-12-18T13:29:47.578Z,-1.40
2022-12-18T13:32:49.315Z,-1.40
2022-12-18T13:36:37.642Z,-1.40
2022-12-18T13:39:39.311Z,-1.40
2022-12-18T13:43:00.382Z,-1.50
2022-12-18T13:46:24.824Z,-1.40
2022-12-18T13:49:32.977Z,-1.50
2022-12-18T13:52:38.671Z,-1.60
2022-12-18T13:55:46.032Z,-1.60
2022-12-18T13:59:14.917Z,-1.60
2022-12-18T14:02:21.604Z,-1.70
2022-12-18T14:05:33.845Z,-1.60
2022-12-18T14:08:40.710Z,-1.60
2022-12-18T14:11:48.308Z,-1.60
2022-12-18T14:14:53.140Z,-1.40
2022-12-18T14:18:03.391Z,-1.40
2022-12-18T14:21:06.403Z,-1.50
2022-12-18T14:24:20.101Z,-1.60
2022-12-18T14:27:25.701Z,-1.70
2022-12-18T14:30:30.879Z,-1.70
2022-12-18T14:33:32.556Z,-1.70
2022-12-18T14:36:34.194Z,-1.80
2022-12-18T14:39:35.821Z,-1.90
2022-12-18T14:42:37.819Z,-2.00
2022-12-18T14:45:47.577Z,-2.10
2022-12-18T14:48:49.567Z,-2.10
2022-12-18T14:51:57.234Z,-2.00
2022-12-18T14:54:59.095Z,-2.00
2022-12-18T14:58:00.785Z,-2.00
2022-12-18T15:01:02.543Z,-2.10
2022-12-18T15:04:23.620Z,-2.00
2022-12-18T15:07:25.417Z,-1.90
2022-12-18T15:10:28.491Z,-1.90
2022-12-18T15:13:30.418Z,-1.90
2022-12-18T15:16:32.278Z,-1.80
2022-12-18T15:19:42.749Z,-1.80
2022-12-18T15:22:48.012Z,-1.80
2022-12-18T15:26:00.280Z,-1.80
2022-12-18T15:29:03.948Z,-1.70
2022-12-18T15:32:20.397Z,-1.70
2022-12-18T15:35:26.192Z,-1.70
2022-12-18T15:38:28.602Z,-1.80
2022-12-18T15:41:34.417Z,-1.80
2022-12-18T15:44:38.358Z,-1.90
2022-12-18T15:47:40.692Z,-1.80
2022-12-18T15:50:42.390Z,-1.80
2022-12-18T15:53:44.948Z,-1.90
2022-12-18T15:57:05.069Z,-1.90
2022-12-18T16:00:07.398Z,-1.90
2022-12-18T16:03:10.582Z,-2.00
2022-12-18T16:06:12.417Z,-1.90
2022-12-18T16:09:14.091Z,-1.90
2022-12-18T16:12:22.873Z,-1.90
2022-12-18T16:15:25.171Z,-1.90
2022-12-18T16:18:26.865Z,-2.00
2022-12-18T16:21:33.796Z,-1.90
2022-12-18T16:24:37.175Z,-1.90
2022-12-18T16:27:38.902Z,-1.80
2022-12-18T16:30:41.311Z,-1.80
2022-12-18T16:33:43.482Z,-1.80
2022-12-18T16:36:45.619Z,-1.80
2022-12-18T16:39:47.268Z,-1.80
2022-12-18T16:42:49.043Z,-1.80
2022-12-18T16:45:52.969Z,-1.70
2022-12-18T16:48:54.821Z,-1.70
2022-12-18T16:51:56.713Z,-1.70
2022-12-18T16:54:58.562Z,-1.70
2022-12-18T16:58:00.243Z,-1.70
2022-12-18T17:01:02.271Z,-1.70
2022-12-18T17:04:06.667Z,-1.80
2022-12-18T17:07:08.817Z,-1.80
2022-12-18T17:10:10.693Z,-1.80
2022-12-18T17:13:12.426Z,-1.80
2022-12-18T17:16:14.315Z,-1.80
2022-12-18T17:19:17.600Z,-1.70
2022-12-18T17:22:20.406Z,-1.60
2022-12-18T17:25:22.178Z,-1.70
2022-12-18T17:28:27.286Z,-1.70
2022-12-18T17:31:30.370Z,-1.70
2022-12-18T17:34:32.158Z,-1.70
2022-12-18T17:37:33.900Z,-1.80
2022-12-18T17:40:36.070Z,-1.70
2022-12-18T17:43:45.954Z,-1.70
2022-12-18T17:46:50.829Z,-1.70
2022-12-18T17:49:52.572Z,-1.80
2022-12-18T17:52:58.683Z,-1.70
2022-12-18T17:56:01.571Z,-1.70
2022-12-18T17:59:03.555Z,-1.80
2022-12-18T18:02:05.405Z,-1.70
2022-12-18T18:05:09.866Z,-1.70
2022-12-18T18:08:13.516Z,-1.70
2022-12-18T18:11:36.569Z,-1.80
2022-12-18T18:14:38.430Z,-1.70
2022-12-18T18:17:40.483Z,-1.70
2022-12-18T18:20:42.199Z,-1.70
2022-12-18T18:23:44.026Z,-1.60
2022-12-18T18:26:47.739Z,-1.60
2022-12-18T18:29:50.687Z,-1.70
2022-12-18T18:32:52.808Z,-1.70
2022-12-18T18:35:55.072Z,-1.70
2022-12-18T18:39:00.147Z,-1.60
2022-12-18T18:42:02.675Z,-1.60
2022-12-18T18:45:04.905Z,-1.60
2022-12-18T18:48:06.806Z,-1.50
2022-12-18T18:51:14.700Z,-1.60
2022-12-18T18:54:24.363Z,-1.60
2022-12-18T18:57:30.247Z,-1.60
2022-12-18T19:00:32.461Z,-1.70
2022-12-18T19:03:35.534Z,-1.60
2022-12-18T19:06:37.433Z,-1.60
2022-12-18T19:09:40.346Z,-1.60
2022-12-18T19:13:00.325Z,-1.50
2022-12-18T19:16:11.701Z,-1.50
2022-12-18T19:19:14.154Z,-1.50
2022-12-18T19:22:15.811Z,-1.60
2022-12-18T19:25:18.244Z,-1.50
2022-12-18T19:28:25.823Z,-1.50
2022-12-18T19:31:34.775Z,-1.50
2022-12-18T19:34:37.741Z,-1.50
2022-12-18T19:37:39.649Z,-1.40
2022-12-18T19:40:41.942Z,-1.40
2022-12-18T19:43:44.256Z,-1.40
2022-12-18T19:46:49.608Z,-1.40
2022-12-18T19:49:51.389Z,-1.40
2022-12-18T19:52:53.443Z,-1.40
2022-12-18T19:55:57.681Z,-1.40
2022-12-18T19:59:00.321Z,-1.40
2022-12-18T20:02:02.138Z,-1.50
2022-12-18T20:05:06.879Z,-1.50
2022-12-18T20:08:10.223Z,-1.50
2022-12-18T20:11:12.271Z,-1.50
2022-12-18T20:14:18.481Z,-1.40
2022-12-18T20:17:24.992Z,-1.40
2022-12-18T20:20:27.149Z,-1.30
2022-12-18T20:23:32.254Z,-1.40
2022-12-18T20:26:36.749Z,-1.40
2022-12-18T20:29:38.557Z,-1.30
2022-12-18T20:32:40.282Z,-1.40
2022-12-18T20:35:42.028Z,-1.30
2022-12-18T20:38:44.583Z,-1.30
2022-12-18T20:41:47.338Z,-1.30
2022-12-18T20:44:49.314Z,-1.30
2022-12-18T20:47:58.110Z,-1.30
2022-12-18T20:51:03.640Z,-1.30
2022-12-18T20:54:12.040Z,-1.30
2022-12-18T20:57:14.327Z,-1.20
2022-12-18T21:00:17.440Z,-1.20
2022-12-18T21:03:22.922Z,-1.10
2022-12-18T21:06:25.058Z,-1.20
2022-12-18T21:09:26.875Z,-1.30
2022-12-18T21:12:35.118Z,-1.30
2022-12-18T21:15:47.162Z,-1.30
2022-12-18T21:18:52.091Z,-1.20
2022-12-18T21:22:00.906Z,-1.20
2022-12-18T21:25:03.662Z,-1.20
2022-12-18T21:28:05.383Z,-1.20
2022-12-18T21:31:07.123Z,-1.20
2022-12-18T21:34:20.473Z,-1.20
2022-12-18T21:37:22.217Z,-1.20
2022-12-18T21:40:24.217Z,-1.10
2022-12-18T21:43:44.300Z,-1.10
2022-12-18T21:46:56.784Z,-1.10
2022-12-18T21:49:59.987Z,-1.20
2022-12-18T21:53:01.646Z,-1.20
2022-12-18T21:56:03.376Z,-1.20
2022-12-18T21:59:05.000Z,-1.20
2022-12-18T22:02:14.081Z,-1.30
2022-12-18T22:05:15.998Z,-1.20
2022-12-18T22:08:17.638Z,-1.30
2022-12-18T22:11:19.360Z,-1.40
2022-12-18T22:14:23.629Z,-1.40
2022-12-18T22:17:25.334Z,-1.40
2022-12-18T22:20:27.433Z,-1.40
2022-12-18T22:23:29.160Z,-1.40
2022-12-18T22:26:39.261Z,-1.40
2022-12-18T22:30:00.133Z,-1.40
2022-12-18T22:33:01.839Z,-1.40
2022-12-18T22:36:07.311Z,-1.30
2022-12-18T22:39:28.883Z,-1.30
2022-12-18T22:42:31.708Z,-1.20
2022-12-18T22:45:33.831Z,-1.10
2022-12-18T22:48:40.139Z,-1.10
2022-12-18T22:51:42.143Z,-1.00
2022-12-18T22:54:43.922Z,-1.00
2022-12-18T22:57:48.504Z,-0.90
2022-12-18T23:00:50.738Z,-0.90
2022-12-18T23:03:56.250Z,-0.90
2022-12-18T23:06:57.902Z,-0.90
2022-12-18T23:09:59.650Z,-0.90
2022-12-18T23:13:02.740Z,-1.00
2022-12-18T23:16:06.507Z,-1.00
2022-12-18T23:19:08.375Z,-1.00
2022-12-18T23:22:11.818Z,-0.90
2022-12-18T23:25:13.784Z,-0.90
2022-12-18T23:28:15.421Z,-0.90
2022-12-18T23:31:23.927Z,-1.00
2022-12-18T23:34:25.577Z,-0.90
2022-12-18T23:37:56.900Z,-0.90
2022-12-18T23:40:48.996Z,-0.90
2022-12-18T23:43:54.945Z,-0.80
2022-12-18T23:46:59.425Z,-0.80
2022-12-18T23:50:01.385Z,-0.80
2022-12-18T23:53:05.509Z,-0.90
2022-12-18T23:56:08.659Z,-0.80
2022-12-18T23:59:10.506Z,-0.80
